createdAt,value
2023-03-06T00:00:50.589Z,3.10
2023-03-06T00:01:50.589Z,3.20
2023-03-06T00:02:52.140Z,3.10
2023-03-06T00:03:50.641Z,2.80
2023-03-06T00:04:50.544Z,3.60
2023-03-06T00:05:50.586Z,3.00
2023-03-06T00:06:50.533Z,3.10
2023-03-06T00:07:50.515Z,2.60
2023-03-06T00:08:50.508Z,3.10
2023-03-06T00:09:50.494Z,3.60
2023-03-06T00:10:50.488Z,3.30
2023-03-06T00:11:50.468Z,3.40
2023-03-06T00:12:50.472Z,3.50
2023-03-06T00:13:50.441Z,2.30
2023-03-06T00:14:50.420Z,2.90
2023-03-06T00:15:50.466Z,3.10
2023-03-06T00:16:50.411Z,3.30
2023-03-06T00:17:50.395Z,3.30
2023-03-06T00:18:50.383Z,2.90
2023-03-06T00:19:50.392Z,3.50
2023-03-06T00:20:50.363Z,3.20
2023-03-06T00:21:50.353Z,4.40
2023-03-06T00:22:50.337Z,4.00
2023-03-06T00:23:50.339Z,3.90
2023-03-06T00:24:50.317Z,2.90
2023-03-06T00:25:50.300Z,4.50
2023-03-06T00:26:50.305Z,3.30
2023-03-06T00:27:50.277Z,3.30
2023-03-06T00:28:50.296Z,3.00
2023-03-06T00:29:50.261Z,3.00
2023-03-06T00:30:50.263Z,3.60
2023-03-06T00:31:50.305Z,3.30
2023-03-06T00:32:50.243Z,4.00
2023-03-06T00:33:50.211Z,3.10
2023-03-06T00:34:50.209Z,3.30
2023-03-06T00:35:50.389Z,3.40
2023-03-06T00:36:50.177Z,3.10
2023-03-06T00:37:50.169Z,3.30
2023-03-06T00:38:50.170Z,2.70
2023-03-06T00:39:50.153Z,3.50
2023-03-06T00:40:50.133Z,3.70
2023-03-06T00:41:50.145Z,2.90
2023-03-06T00:42:50.123Z,3.80
2023-03-06T00:43:50.112Z,3.70
2023-03-06T00:44:50.092Z,3.50
2023-03-06T00:45:50.125Z,2.90
2023-03-06T00:46:50.080Z,3.10
2023-03-06T00:47:50.054Z,3.20
2023-03-06T00:48:50.076Z,3.30
2023-03-06T00:49:50.033Z,3.60
2023-03-06T00:50:50.025Z,3.00
2023-03-06T00:51:50.054Z,3.30
2023-03-06T00:52:50.028Z,3.40
2023-03-06T00:53:49.989Z,4.00
2023-03-06T00:54:49.991Z,3.80
2023-03-06T00:55:49.974Z,3.50
2023-03-06T00:56:49.981Z,3.60
2023-03-06T00:57:49.950Z,2.80
2023-03-06T00:58:49.943Z,3.50
2023-03-06T00:59:49.919Z,3.00
2023-03-06T01:00:49.940Z,3.30
2023-03-06T01:01:49.932Z,3.50
2023-03-06T01:02:49.895Z,3.20
2023-03-06T01:03:49.902Z,3.30
2023-03-06T01:04:49.884Z,3.60
2023-03-06T01:05:49.863Z,3.10
2023-03-06T01:06:49.851Z,3.60
2023-03-06T01:07:49.866Z,2.70
2023-03-06T01:08:49.820Z,3.10
2023-03-06T01:09:49.835Z,4.00
2023-03-06T01:10:49.808Z,3.10
2023-03-06T01:11:49.795Z,3.90
2023-03-06T01:12:49.781Z,3.40
2023-03-06T01:13:49.776Z,3.40
2023-03-06T01:14:49.762Z,3.30
2023-03-06T01:15:49.759Z,3.80
2023-03-06T01:16:49.746Z,3.70
2023-03-06T01:17:49.714Z,3.60
2023-03-06T01:18:49.699Z,3.20
2023-03-06T01:19:49.688Z,3.60
2023-03-06T01:20:49.694Z,3.70
2023-03-06T01:21:49.680Z,3.50
2023-03-06T01:22:49.686Z,4.10
2023-03-06T01:23:49.671Z,3.90
2023-03-06T01:24:49.636Z,3.00
2023-03-06T01:25:49.640Z,3.60
2023-03-06T01:26:49.628Z,3.40
2023-03-06T01:27:49.610Z,3.50
2023-03-06T01:28:49.607Z,3.60
2023-03-06T01:29:49.584Z,4.30
2023-03-06T01:30:49.586Z,3.40
2023-03-06T01:31:49.614Z,2.90
2023-03-06T01:32:49.549Z,3.10
2023-03-06T01:33:49.548Z,2.70
2023-03-06T01:34:49.527Z,3.20
2023-03-06T01:35:49.552Z,2.80
2023-03-06T01:36:49.524Z,3.60
2023-03-06T01:37:49.496Z,3.70
2023-03-06T01:38:49.494Z,3.40
2023-03-06T01:39:49.502Z,3.00
2023-03-06T01:40:49.458Z,3.70
2023-03-06T01:41:49.461Z,2.60
2023-03-06T01:42:49.461Z,2.90
2023-03-06T01:43:49.430Z,2.70
2023-03-06T01:44:49.417Z,3.50
2023-03-06T01:45:49.505Z,2.80
2023-03-06T01:46:49.408Z,3.00
2023-03-06T01:47:49.410Z,3.50
2023-03-06T01:48:49.380Z,3.50
2023-03-06T01:49:49.372Z,3.80
2023-03-06T01:50:49.364Z,2.90
2023-03-06T01:51:49.358Z,3.40
2023-03-06T01:52:49.336Z,3.10
2023-03-06T01:53:49.333Z,2.90
2023-03-06T01:54:49.313Z,2.80
2023-03-06T01:55:49.337Z,2.50
2023-03-06T01:56:49.284Z,3.50
2023-03-06T01:57:49.268Z,3.70
2023-03-06T01:58:49.264Z,3.10
2023-03-06T01:59:49.278Z,3.20
2023-03-06T02:00:49.338Z,2.90
2023-03-06T02:01:49.277Z,3.40
2023-03-06T02:02:49.244Z,3.10
2023-03-06T02:03:49.234Z,3.60
2023-03-06T02:04:49.211Z,3.70
2023-03-06T02:05:49.203Z,3.40
2023-03-06T02:06:49.168Z,3.10
2023-03-06T02:07:49.175Z,3.60
2023-03-06T02:08:49.181Z,3.50
2023-03-06T02:09:49.154Z,3.70
2023-03-06T02:10:49.153Z,2.60
2023-03-06T02:11:49.328Z,3.40
2023-03-06T02:12:49.107Z,3.40
2023-03-06T02:13:49.119Z,3.40
2023-03-06T02:14:49.104Z,3.20
2023-03-06T02:15:49.096Z,3.10
2023-03-06T02:16:49.180Z,2.70
2023-03-06T02:17:49.070Z,3.40
2023-03-06T02:18:49.051Z,3.40
2023-03-06T02:19:49.042Z,4.00
2023-03-06T02:20:49.037Z,3.80
2023-03-06T02:21:49.018Z,2.50
2023-03-06T02:22:48.995Z,2.70
2023-03-06T02:23:48.991Z,3.00
2023-03-06T02:24:48.974Z,3.00
2023-03-06T02:25:48.966Z,3.60
2023-03-06T02:26:48.951Z,2.90
2023-03-06T02:27:48.963Z,2.50
2023-03-06T02:28:48.945Z,3.20
2023-03-06T02:29:48.939Z,3.30
2023-03-06T02:30:48.950Z,4.00
2023-03-06T02:31:48.908Z,2.90
2023-03-06T02:32:48.894Z,2.70
2023-03-06T02:33:48.885Z,3.10
2023-03-06T02:34:48.873Z,2.70
2023-03-06T02:35:48.906Z,3.30
2023-03-06T02:36:48.877Z,3.40
2023-03-06T02:37:48.838Z,2.80
2023-03-06T02:38:48.838Z,3.40
2023-03-06T02:39:48.812Z,3.00
2023-03-06T02:40:48.807Z,3.30
2023-03-06T02:41:48.799Z,3.10
2023-03-06T02:42:48.782Z,3.30
2023-03-06T02:43:48.806Z,3.00
2023-03-06T02:44:48.757Z,2.50
2023-03-06T02:45:48.837Z,3.10
2023-03-06T02:46:48.734Z,2.70
2023-03-06T02:47:48.735Z,3.90
2023-03-06T02:48:48.713Z,2.70
2023-03-06T02:49:48.708Z,2.90
2023-03-06T02:50:48.705Z,2.40
2023-03-06T02:51:48.686Z,3.30
2023-03-06T02:52:48.679Z,3.30
2023-03-06T02:53:48.646Z,2.80
2023-03-06T02:54:48.652Z,2.60
2023-03-06T02:55:48.666Z,2.60
2023-03-06T02:56:48.628Z,2.90
2023-03-06T02:57:48.614Z,1.80
2023-03-06T02:58:48.594Z,1.80
2023-03-06T02:59:48.614Z,2.80
2023-03-06T03:00:48.602Z,2.30
2023-03-06T03:01:48.659Z,3.00
2023-03-06T03:02:48.543Z,2.50
2023-03-06T03:03:48.561Z,2.90
2023-03-06T03:04:48.598Z,2.70
2023-03-06T03:05:48.510Z,2.40
2023-03-06T03:06:48.512Z,3.10
2023-03-06T03:07:48.519Z,2.60
2023-03-06T03:08:48.478Z,3.00
2023-03-06T03:09:48.501Z,2.60
2023-03-06T03:10:48.478Z,2.30
2023-03-06T03:11:48.461Z,2.30
2023-03-06T03:12:48.445Z,2.70
2023-03-06T03:13:48.424Z,3.20
2023-03-06T03:14:48.438Z,2.20
2023-03-06T03:15:48.447Z,3.20
2023-03-06T03:16:48.434Z,2.30
2023-03-06T03:17:48.419Z,2.60
2023-03-06T03:18:48.377Z,3.00
2023-03-06T03:19:48.354Z,2.50
2023-03-06T03:20:48.418Z,2.70
2023-03-06T03:21:48.336Z,2.60
2023-03-06T03:22:48.335Z,2.10
2023-03-06T03:23:48.330Z,2.70
2023-03-06T03:24:48.364Z,2.50
2023-03-06T03:25:48.296Z,3.00
2023-03-06T03:26:48.309Z,2.90
2023-03-06T03:27:48.271Z,2.40
2023-03-06T03:28:48.276Z,3.20
2023-03-06T03:29:48.266Z,2.30
2023-03-06T03:30:48.319Z,3.20
2023-03-06T03:31:48.262Z,3.00
2023-03-06T03:32:48.220Z,3.50
2023-03-06T03:33:48.220Z,3.30
2023-03-06T03:34:48.201Z,3.20
2023-03-06T03:35:48.208Z,3.20
2023-03-06T03:36:48.189Z,3.10
2023-03-06T03:37:48.160Z,2.80
2023-03-06T03:38:48.167Z,2.90
2023-03-06T03:39:48.151Z,2.00
2023-03-06T03:40:48.131Z,1.90
2023-03-06T03:41:48.115Z,2.80
2023-03-06T03:42:48.137Z,2.70
2023-03-06T03:43:48.092Z,2.70
2023-03-06T03:44:48.110Z,2.80
2023-03-06T03:45:48.087Z,2.90
2023-03-06T03:46:48.134Z,2.60
2023-03-06T03:47:48.108Z,2.70
2023-03-06T03:48:48.080Z,2.60
2023-03-06T03:49:48.036Z,2.10
2023-03-06T03:50:48.017Z,2.60
2023-03-06T03:51:48.000Z,2.90
2023-03-06T03:52:48.015Z,3.30
2023-03-06T03:53:47.988Z,2.90
2023-03-06T03:54:47.986Z,3.50
2023-03-06T03:55:47.983Z,3.20
2023-03-06T03:56:47.960Z,2.70
2023-03-06T03:57:47.966Z,2.50
2023-03-06T03:58:47.935Z,1.80
2023-03-06T03:59:47.929Z,2.90
2023-03-06T04:00:47.930Z,3.30
2023-03-06T04:01:47.913Z,2.80
2023-03-06T04:02:47.875Z,2.80
2023-03-06T04:03:47.909Z,2.80
2023-03-06T04:04:47.958Z,2.70
2023-03-06T04:05:47.860Z,2.70
2023-03-06T04:06:47.868Z,3.30
2023-03-06T04:07:47.832Z,3.10
2023-03-06T04:08:47.828Z,2.20
2023-03-06T04:09:47.805Z,3.10
2023-03-06T04:10:47.793Z,3.10
2023-03-06T04:11:47.782Z,2.70
2023-03-06T04:12:47.787Z,3.40
2023-03-06T04:13:47.767Z,2.30
2023-03-06T04:14:47.762Z,2.00
2023-03-06T04:15:47.743Z,2.60
2023-03-06T04:16:47.720Z,3.40
2023-03-06T04:17:47.740Z,2.70
2023-03-06T04:18:47.715Z,2.90
2023-03-06T04:19:47.720Z,2.50
2023-03-06T04:20:47.688Z,2.40
2023-03-06T04:21:47.661Z,3.40
2023-03-06T04:22:47.704Z,3.00
2023-03-06T04:23:47.663Z,3.00
2023-03-06T04:24:47.643Z,2.60
2023-03-06T04:25:47.667Z,2.40
2023-03-06T04:26:47.630Z,3.10
2023-03-06T04:27:47.610Z,2.10
2023-03-06T04:28:47.599Z,3.30
2023-03-06T04:29:47.575Z,2.90
2023-03-06T04:30:47.560Z,2.90
2023-03-06T04:31:47.648Z,2.50
2023-03-06T04:32:47.543Z,3.20
2023-03-06T04:33:47.576Z,2.90
2023-03-06T04:34:47.517Z,3.60
2023-03-06T04:35:47.657Z,3.50
2023-03-06T04:36:47.549Z,2.50
2023-03-06T04:37:47.504Z,2.70
2023-03-06T04:38:47.563Z,3.30
2023-03-06T04:39:47.524Z,2.70
2023-03-06T04:40:47.455Z,3.10
2023-03-06T04:41:47.460Z,3.20
2023-03-06T04:42:47.429Z,3.20
2023-03-06T04:43:47.436Z,2.80
2023-03-06T04:44:47.419Z,2.20
2023-03-06T04:45:47.494Z,2.60
2023-03-06T04:46:47.397Z,3.00
2023-03-06T04:47:47.377Z,3.40
2023-03-06T04:48:47.409Z,2.80
2023-03-06T04:49:47.357Z,3.60
2023-03-06T04:50:47.355Z,2.60
2023-03-06T04:51:47.424Z,2.10
2023-03-06T04:52:47.335Z,3.30
2023-03-06T04:53:47.327Z,3.00
2023-03-06T04:54:47.307Z,3.20
2023-03-06T04:55:47.298Z,3.00
2023-03-06T04:56:47.283Z,3.60
2023-03-06T04:57:47.267Z,3.40
2023-03-06T04:58:47.277Z,2.90
2023-03-06T04:59:47.243Z,3.90
2023-03-06T05:00:47.289Z,3.60
2023-03-06T05:01:47.303Z,3.10
2023-03-06T05:02:47.216Z,2.80
2023-03-06T05:03:47.218Z,3.70
2023-03-06T05:04:47.197Z,2.70
2023-03-06T05:05:47.175Z,3.60
2023-03-06T05:06:47.164Z,2.80
2023-03-06T05:07:47.191Z,3.60
2023-03-06T05:08:47.143Z,3.80
2023-03-06T05:09:47.140Z,3.20
2023-03-06T05:10:47.126Z,3.10
2023-03-06T05:11:47.106Z,3.10
2023-03-06T05:12:47.092Z,2.80
2023-03-06T05:13:47.110Z,3.60
2023-03-06T05:14:48.100Z,3.80
2023-03-06T05:15:47.078Z,3.30
2023-03-06T05:16:47.129Z,3.10
2023-03-06T05:17:47.036Z,3.10
2023-03-06T05:18:49.402Z,3.10
2023-03-06T05:19:47.047Z,3.50
2023-03-06T05:20:47.008Z,3.20
2023-03-06T05:21:47.005Z,3.60
2023-03-06T05:22:46.995Z,3.70
2023-03-06T05:23:47.009Z,2.80
2023-03-06T05:24:46.973Z,3.80
2023-03-06T05:25:46.950Z,2.70
2023-03-06T05:26:46.958Z,3.70
2023-03-06T05:27:46.932Z,3.20
2023-03-06T05:28:46.939Z,3.80
2023-03-06T05:29:46.904Z,4.40
2023-03-06T05:30:46.907Z,4.10
2023-03-06T05:31:46.974Z,3.60
2023-03-06T05:32:47.001Z,2.90
2023-03-06T05:33:46.872Z,3.80
2023-03-06T05:34:46.843Z,2.80
2023-03-06T05:35:46.904Z,3.50
2023-03-06T05:36:46.841Z,3.40
2023-03-06T05:37:46.821Z,3.80
2023-03-06T05:38:46.809Z,4.10
2023-03-06T05:39:46.861Z,3.90
2023-03-06T05:40:46.800Z,3.90
2023-03-06T05:41:46.769Z,2.80
2023-03-06T05:42:46.763Z,3.50
2023-03-06T05:43:46.781Z,3.60
2023-03-06T05:44:46.752Z,3.10
2023-03-06T05:45:46.808Z,3.10
2023-03-06T05:46:46.739Z,4.00
2023-03-06T05:47:46.727Z,4.10
2023-03-06T05:48:47.124Z,2.80
2023-03-06T05:49:46.685Z,3.30
2023-03-06T05:50:46.697Z,2.90
2023-03-06T05:51:46.674Z,2.70
2023-03-06T05:52:46.677Z,3.10
2023-03-06T05:53:46.638Z,3.20
2023-03-06T05:54:46.646Z,3.80
2023-03-06T05:55:46.654Z,3.10
2023-03-06T05:56:46.640Z,2.80
2023-03-06T05:57:46.630Z,3.10
2023-03-06T05:58:46.587Z,3.90
2023-03-06T05:59:46.580Z,4.00
2023-03-06T06:00:46.588Z,3.30
2023-03-06T06:01:46.564Z,3.60
2023-03-06T06:02:46.554Z,3.50
2023-03-06T06:03:46.622Z,3.40
2023-03-06T06:04:46.516Z,3.50
2023-03-06T06:05:46.538Z,2.80
2023-03-06T06:06:46.519Z,3.80
2023-03-06T06:07:46.488Z,2.50
2023-03-06T06:08:46.481Z,3.70
2023-03-06T06:09:46.477Z,3.10
2023-03-06T06:10:46.483Z,3.70
2023-03-06T06:11:47.452Z,3.00
2023-03-06T06:12:46.448Z,2.90
2023-03-06T06:13:46.442Z,3.50
2023-03-06T06:14:46.466Z,3.70
2023-03-06T06:15:46.465Z,3.20
2023-03-06T06:16:46.403Z,3.00
2023-03-06T06:17:54.194Z,3.20
2023-03-06T06:18:46.360Z,3.30
2023-03-06T06:19:46.363Z,4.00
2023-03-06T06:20:46.355Z,3.50
2023-03-06T06:21:46.353Z,3.80
2023-03-06T06:22:46.347Z,3.80
2023-03-06T06:23:46.990Z,3.50
2023-03-06T06:24:46.297Z,3.30
2023-03-06T06:25:46.314Z,3.60
2023-03-06T06:26:46.296Z,4.10
2023-03-06T06:27:46.288Z,4.20
2023-03-06T06:28:46.302Z,3.70
2023-03-06T06:29:46.256Z,4.90
2023-03-06T06:30:46.342Z,3.60
2023-03-06T06:31:46.252Z,4.30
2023-03-06T06:32:46.225Z,4.90
2023-03-06T06:33:46.239Z,3.50
2023-03-06T06:34:46.196Z,3.70
2023-03-06T06:35:46.239Z,3.80
2023-03-06T06:36:46.193Z,3.80
2023-03-06T06:37:46.254Z,4.40
2023-03-06T06:38:46.158Z,3.90
2023-03-06T06:39:46.171Z,3.30
2023-03-06T06:41:04.321Z,4.30
2023-03-06T06:42:00.075Z,3.50
2023-03-06T06:42:47.127Z,3.90
2023-03-06T06:43:46.217Z,4.00
2023-03-06T06:44:46.097Z,2.90
2023-03-06T06:45:46.293Z,3.70
2023-03-06T06:47:47.077Z,3.40
2023-03-06T06:48:46.036Z,3.70
2023-03-06T06:49:46.048Z,4.40
2023-03-06T06:50:46.034Z,4.30
2023-03-06T06:51:46.043Z,3.90
2023-03-06T06:52:46.010Z,3.50
2023-03-06T06:53:46.029Z,4.30
2023-03-06T06:54:46.078Z,4.00
2023-03-06T06:55:45.954Z,4.40
2023-03-06T06:56:45.974Z,4.40
2023-03-06T06:57:45.973Z,4.90
2023-03-06T06:58:45.931Z,3.80
2023-03-06T06:59:45.992Z,3.20
2023-03-06T07:00:45.906Z,4.00
2023-03-06T07:01:45.960Z,3.70
2023-03-06T07:02:45.903Z,3.40
2023-03-06T07:03:45.950Z,4.30
2023-03-06T07:05:01.867Z,4.50
2023-03-06T07:05:46.870Z,3.60
2023-03-06T07:06:45.851Z,3.70
2023-03-06T07:07:45.910Z,3.00
2023-03-06T07:08:45.812Z,3.90
2023-03-06T07:09:45.820Z,3.90
2023-03-06T07:10:45.796Z,2.80
2023-03-06T07:11:45.788Z,4.60
2023-03-06T07:12:45.768Z,5.50
2023-03-06T07:13:45.778Z,4.50
2023-03-06T07:14:45.732Z,4.00
2023-03-06T07:15:45.832Z,3.30
2023-03-06T07:16:45.737Z,4.10
2023-03-06T07:17:46.022Z,3.90
2023-03-06T07:18:45.748Z,3.80
2023-03-06T07:19:45.715Z,3.30
2023-03-06T07:20:45.697Z,3.80
2023-03-06T07:21:45.669Z,4.10
2023-03-06T07:22:51.362Z,4.10
2023-03-06T07:23:46.677Z,4.50
2023-03-06T07:24:45.646Z,5.00
2023-03-06T07:25:45.643Z,4.20
2023-03-06T07:26:45.651Z,4.10
2023-03-06T07:27:52.680Z,4.50
2023-03-06T07:28:52.641Z,4.60
2023-03-06T07:29:46.580Z,3.80
2023-03-06T07:30:45.585Z,5.30
2023-03-06T07:31:45.690Z,3.70
2023-03-06T07:32:45.566Z,5.00
2023-03-06T07:33:45.526Z,4.70
2023-03-06T07:34:45.553Z,4.60
2023-03-06T07:35:45.625Z,5.00
2023-03-06T07:36:45.495Z,4.40
2023-03-06T07:37:45.563Z,5.10
2023-03-06T07:38:45.475Z,5.20
2023-03-06T07:39:45.471Z,5.70
2023-03-06T07:40:45.460Z,4.90
2023-03-06T07:41:45.479Z,4.90
2023-03-06T07:42:45.437Z,5.10
2023-03-06T07:43:45.422Z,4.90
2023-03-06T07:44:45.442Z,5.60
2023-03-06T07:45:45.412Z,5.50
2023-03-06T07:46:45.430Z,5.60
2023-03-06T07:47:45.414Z,6.60
2023-03-06T07:48:45.405Z,5.60
2023-03-06T07:49:45.380Z,5.30
2023-03-06T07:50:47.984Z,5.10
2023-03-06T07:51:45.371Z,5.20
2023-03-06T07:52:45.337Z,6.30
2023-03-06T07:53:45.347Z,6.10
2023-03-06T07:54:45.604Z,5.90
2023-03-06T07:55:45.396Z,6.20
2023-03-06T07:56:45.300Z,5.40
2023-03-06T07:57:45.285Z,6.30
2023-03-06T07:58:45.298Z,5.60
2023-03-06T07:59:45.253Z,5.60
2023-03-06T08:00:45.236Z,5.60
2023-03-06T08:01:45.252Z,6.50
2023-03-06T08:02:45.296Z,5.50
2023-03-06T08:03:45.310Z,6.00
2023-03-06T08:04:45.210Z,6.50
2023-03-06T08:05:45.210Z,5.30
2023-03-06T08:06:45.185Z,6.60
2023-03-06T08:07:45.195Z,5.40
2023-03-06T08:08:45.241Z,6.20
2023-03-06T08:09:45.157Z,5.90
2023-03-06T08:10:45.159Z,6.00
2023-03-06T08:11:45.168Z,6.40
2023-03-06T08:12:45.153Z,6.60
2023-03-06T08:13:45.098Z,6.10
2023-03-06T08:14:45.086Z,6.10
2023-03-06T08:15:45.104Z,6.30
2023-03-06T08:16:45.056Z,5.00
2023-03-06T08:17:45.077Z,5.90
2023-03-06T08:18:46.436Z,6.00
2023-03-06T08:19:45.112Z,6.40
2023-03-06T08:20:45.056Z,6.00
2023-03-06T08:21:45.050Z,5.90
2023-03-06T08:22:45.013Z,7.00
2023-03-06T08:23:44.993Z,5.40
2023-03-06T08:24:44.996Z,5.90
2023-03-06T08:25:44.976Z,6.70
2023-03-06T08:26:44.988Z,5.60
2023-03-06T08:27:44.951Z,7.50
2023-03-06T08:28:44.922Z,6.70
2023-03-06T08:29:44.930Z,7.30
2023-03-06T08:30:44.908Z,6.10
2023-03-06T08:31:44.889Z,6.40
2023-03-06T08:32:44.888Z,6.40
2023-03-06T08:33:44.925Z,6.10
2023-03-06T08:34:44.931Z,5.90
2023-03-06T08:35:44.938Z,6.20
2023-03-06T08:36:44.857Z,7.30
2023-03-06T08:37:45.613Z,6.60
2023-03-06T08:38:44.853Z,7.40
2023-03-06T08:39:44.794Z,6.90
2023-03-06T08:40:44.800Z,7.10
2023-03-06T08:41:44.820Z,6.10
2023-03-06T08:42:44.755Z,6.60
2023-03-06T08:43:44.751Z,7.80
2023-03-06T08:44:45.511Z,6.20
2023-03-06T08:45:44.787Z,6.50
2023-03-06T08:46:44.753Z,7.80
2023-03-06T08:47:44.750Z,6.40
2023-03-06T08:48:44.706Z,6.30
2023-03-06T08:49:44.696Z,6.80
2023-03-06T08:50:44.818Z,8.00
2023-03-06T08:51:44.694Z,6.80
2023-03-06T08:52:44.665Z,7.60
2023-03-06T08:53:44.855Z,7.20
2023-03-06T08:54:44.668Z,6.90
2023-03-06T08:55:44.717Z,8.20
2023-03-06T08:56:44.637Z,8.00
2023-03-06T08:57:44.612Z,8.90
2023-03-06T08:58:44.622Z,9.40
2023-03-06T08:59:44.593Z,8.20
2023-03-06T09:00:44.839Z,8.30
2023-03-06T09:01:44.636Z,9.60
2023-03-06T09:02:44.606Z,8.20
2023-03-06T09:03:44.576Z,8.50
2023-03-06T09:04:44.552Z,9.00
2023-03-06T09:05:44.593Z,8.00
2023-03-06T09:06:44.494Z,8.00
2023-03-06T09:07:44.625Z,8.30
2023-03-06T09:08:44.597Z,9.10
2023-03-06T09:09:44.503Z,8.90
2023-03-06T09:10:44.506Z,8.60
2023-03-06T09:11:44.462Z,8.10
2023-03-06T09:12:50.598Z,8.90
2023-03-06T09:13:45.973Z,7.90
2023-03-06T09:14:44.454Z,8.00
2023-03-06T09:15:44.396Z,7.40
2023-03-06T09:16:44.484Z,8.90
2023-03-06T09:17:44.496Z,9.70
2023-03-06T09:18:44.363Z,8.70
2023-03-06T09:19:44.358Z,8.00
2023-03-06T09:20:44.352Z,9.00
2023-03-06T09:21:44.322Z,8.70
2023-03-06T09:22:44.328Z,8.70
2023-03-06T09:23:44.368Z,9.50
2023-03-06T09:24:44.313Z,8.20
2023-03-06T09:25:44.299Z,8.80
2023-03-06T09:26:46.679Z,9.10
2023-03-06T09:27:44.280Z,10.20
2023-03-06T09:28:44.293Z,9.20
2023-03-06T09:29:44.248Z,9.60
2023-03-06T09:30:44.272Z,8.90
2023-03-06T09:31:44.235Z,9.70
2023-03-06T09:32:44.261Z,9.30
2023-03-06T09:33:44.216Z,9.30
2023-03-06T09:34:44.202Z,8.70
2023-03-06T09:35:44.242Z,9.20
2023-03-06T09:36:55.990Z,10.10
2023-03-06T09:37:45.174Z,10.70
2023-03-06T09:38:44.195Z,9.60
2023-03-06T09:39:44.167Z,10.30
2023-03-06T09:40:44.197Z,9.90
2023-03-06T09:41:44.114Z,9.80
2023-03-06T09:42:44.103Z,9.40
2023-03-06T09:43:44.100Z,9.30
2023-03-06T09:44:44.123Z,9.30
2023-03-06T09:45:44.104Z,9.40
2023-03-06T09:46:44.077Z,9.10
2023-03-06T09:47:44.965Z,9.40
2023-03-06T09:48:44.089Z,10.20
2023-03-06T09:49:44.984Z,9.60
2023-03-06T09:50:44.048Z,10.40
2023-03-06T09:51:44.005Z,9.60
2023-03-06T09:52:44.053Z,9.90
2023-03-06T09:53:43.967Z,9.40
2023-03-06T09:54:43.972Z,9.40
2023-03-06T09:55:44.098Z,10.00
2023-03-06T09:56:43.989Z,9.60
2023-03-06T09:57:43.981Z,8.70
2023-03-06T09:58:44.037Z,9.30
2023-03-06T09:59:44.465Z,10.00
2023-03-06T10:00:43.926Z,9.50
2023-03-06T10:01:43.899Z,9.20
2023-03-06T10:02:44.018Z,9.50
2023-03-06T10:03:43.890Z,9.80
2023-03-06T10:04:44.026Z,9.60
2023-03-06T10:05:43.857Z,9.20
2023-03-06T10:06:43.828Z,8.80
2023-03-06T10:07:43.845Z,9.30
2023-03-06T10:08:43.907Z,9.40
2023-03-06T10:09:43.823Z,8.80
2023-03-06T10:10:43.810Z,8.50
2023-03-06T10:11:43.855Z,8.50
2023-03-06T10:12:43.758Z,9.20
2023-03-06T10:13:43.760Z,8.70
2023-03-06T10:14:43.745Z,7.90
2023-03-06T10:15:43.818Z,8.50
2023-03-06T10:16:43.716Z,8.60
2023-03-06T10:17:43.768Z,8.60
2023-03-06T10:18:43.692Z,9.10
2023-03-06T10:19:43.689Z,8.60
2023-03-06T10:20:43.705Z,8.70
2023-03-06T10:21:43.683Z,8.10
2023-03-06T10:22:46.083Z,8.30
2023-03-06T10:23:43.671Z,8.50
2023-03-06T10:24:43.648Z,8.50
2023-03-06T10:25:43.642Z,8.10
2023-03-06T10:26:43.722Z,7.30
2023-03-06T10:27:43.641Z,7.90
2023-03-06T10:28:43.638Z,7.30
2023-03-06T10:29:47.557Z,7.90
2023-03-06T10:30:44.778Z,6.80
2023-03-06T10:31:43.568Z,7.10
2023-03-06T10:32:48.849Z,7.30
2023-03-06T10:33:44.520Z,6.70
2023-03-06T10:34:43.536Z,6.60
2023-03-06T10:35:43.580Z,6.60
2023-03-06T10:36:44.001Z,6.60
2023-03-06T10:37:43.502Z,7.20
2023-03-06T10:38:43.515Z,8.40
2023-03-06T10:39:43.482Z,7.70
2023-03-06T10:40:43.467Z,6.90
2023-03-06T10:41:44.722Z,6.80
2023-03-06T10:42:43.449Z,5.90
2023-03-06T10:43:43.439Z,6.80
2023-03-06T10:44:43.456Z,7.50
2023-03-06T10:45:48.946Z,7.30
2023-03-06T10:46:44.559Z,6.50
2023-03-06T10:47:43.383Z,6.10
2023-03-06T10:48:43.376Z,6.20
2023-03-06T10:49:43.379Z,7.20
2023-03-06T10:50:43.335Z,6.90
2023-03-06T10:51:43.351Z,7.90
2023-03-06T10:52:43.316Z,6.70
2023-03-06T10:53:43.339Z,6.10
2023-03-06T10:54:43.352Z,6.00
2023-03-06T10:55:43.282Z,7.80
2023-03-06T10:56:43.267Z,6.30
2023-03-06T10:57:43.268Z,6.70
2023-03-06T10:58:43.288Z,6.20
2023-03-06T10:59:43.328Z,6.10
2023-03-06T11:00:43.251Z,5.60
2023-03-06T11:01:43.291Z,6.40
2023-03-06T11:02:43.199Z,6.30
2023-03-06T11:03:43.189Z,6.10
2023-03-06T11:04:43.252Z,5.50
2023-03-06T11:05:43.202Z,5.20
2023-03-06T11:06:43.182Z,5.70
2023-03-06T11:07:43.191Z,6.30
2023-03-06T11:08:43.154Z,5.50
2023-03-06T11:09:43.226Z,4.90
2023-03-06T11:10:43.421Z,5.90
2023-03-06T11:11:43.110Z,5.20
2023-03-06T11:12:43.113Z,6.30
2023-03-06T11:13:43.955Z,5.40
2023-03-06T11:14:43.079Z,5.70
2023-03-06T11:15:43.180Z,6.50
2023-03-06T11:16:43.059Z,5.90
2023-03-06T11:17:43.085Z,6.00
2023-03-06T11:18:43.055Z,5.90
2023-03-06T11:19:43.019Z,6.20
2023-03-06T11:20:51.571Z,6.00
2023-03-06T11:21:44.024Z,6.70
2023-03-06T11:22:43.957Z,7.30
2023-03-06T11:23:42.975Z,7.00
2023-03-06T11:24:42.991Z,6.20
2023-03-06T11:25:42.957Z,7.80
2023-03-06T11:26:42.986Z,7.30
2023-03-06T11:27:42.942Z,7.00
2023-03-06T11:28:42.963Z,6.50
2023-03-06T11:29:42.907Z,7.00
2023-03-06T11:30:42.911Z,7.10
2023-03-06T11:31:43.011Z,6.50
2023-03-06T11:32:42.941Z,7.40
2023-03-06T11:33:43.521Z,6.30
2023-03-06T11:34:42.884Z,6.50
2023-03-06T11:35:42.865Z,5.80
2023-03-06T11:36:42.861Z,7.30
2023-03-06T11:37:42.819Z,6.80
2023-03-06T11:38:42.852Z,7.00
2023-03-06T11:39:42.786Z,7.50
2023-03-06T11:40:42.819Z,6.30
2023-03-06T11:41:42.793Z,6.70
2023-03-06T11:42:42.792Z,6.10
2023-03-06T11:43:42.758Z,6.00
2023-03-06T11:44:42.731Z,6.70
2023-03-06T11:45:42.744Z,7.00
2023-03-06T11:46:42.780Z,5.70
2023-03-06T11:47:42.865Z,6.20
2023-03-06T11:48:42.701Z,6.10
2023-03-06T11:49:42.697Z,5.90
2023-03-06T11:50:42.717Z,4.90
2023-03-06T11:51:42.684Z,5.70
2023-03-06T11:52:42.709Z,5.90
2023-03-06T11:53:42.640Z,5.40
2023-03-06T11:54:42.656Z,4.50
2023-03-06T11:55:42.653Z,5.40
2023-03-06T11:56:42.623Z,6.10
2023-03-06T11:57:42.606Z,5.40
2023-03-06T11:58:42.670Z,5.30
2023-03-06T11:59:42.617Z,4.90
2023-03-06T12:00:42.613Z,4.60
2023-03-06T12:01:42.688Z,5.30
2023-03-06T12:02:42.561Z,5.10
2023-03-06T12:03:42.581Z,4.20
2023-03-06T12:04:42.575Z,5.80
2023-03-06T12:05:43.517Z,6.00
2023-03-06T12:06:42.508Z,4.80
2023-03-06T12:07:42.500Z,5.00
2023-03-06T12:08:42.469Z,4.90
2023-03-06T12:09:42.489Z,4.90
2023-03-06T12:10:42.482Z,5.00
2023-03-06T12:11:42.450Z,4.10
2023-03-06T12:12:43.019Z,4.90
2023-03-06T12:13:42.411Z,4.20
2023-03-06T12:14:42.436Z,5.60
2023-03-06T12:15:42.412Z,5.00
2023-03-06T12:16:42.433Z,4.40
2023-03-06T12:17:42.393Z,4.10
2023-03-06T12:18:42.430Z,4.20
2023-03-06T12:19:42.417Z,4.90
2023-03-06T12:20:42.986Z,3.90
2023-03-06T12:21:42.401Z,3.80
2023-03-06T12:22:44.316Z,3.60
2023-03-06T12:23:42.343Z,2.60
2023-03-06T12:24:42.352Z,3.20
2023-03-06T12:25:42.308Z,3.20
2023-03-06T12:26:42.299Z,3.70
2023-03-06T12:27:42.327Z,3.70
2023-03-06T12:28:42.254Z,3.50
2023-03-06T12:29:42.289Z,3.90
2023-03-06T12:30:42.248Z,4.80
2023-03-06T12:31:42.264Z,4.50
2023-03-06T12:32:42.278Z,4.60
2023-03-06T12:33:42.221Z,4.60
2023-03-06T12:34:42.225Z,4.50
2023-03-06T12:35:42.282Z,4.80
2023-03-06T12:36:42.168Z,3.60
2023-03-06T12:37:42.192Z,3.70
2023-03-06T12:38:42.181Z,4.10
2023-03-06T12:39:42.216Z,3.90
2023-03-06T12:40:42.134Z,4.30
2023-03-06T12:41:42.098Z,4.40
2023-03-06T12:42:42.136Z,4.40
2023-03-06T12:43:42.114Z,4.70
2023-03-06T12:44:42.189Z,4.30
2023-03-06T12:45:42.170Z,4.40
2023-03-06T12:46:42.139Z,3.90
2023-03-06T12:47:42.074Z,3.90
2023-03-06T12:48:42.043Z,3.60
2023-03-06T12:49:42.039Z,3.60
2023-03-06T12:50:42.042Z,4.40
2023-03-06T12:51:42.047Z,4.10
2023-03-06T12:52:42.027Z,3.60
2023-03-06T12:53:41.988Z,4.10
2023-03-06T12:54:41.969Z,4.20
2023-03-06T12:55:41.968Z,4.50
2023-03-06T12:56:41.968Z,4.10
2023-03-06T12:57:41.950Z,4.20
2023-03-06T12:58:41.966Z,4.50
2023-03-06T12:59:41.905Z,4.10
2023-03-06T13:00:41.910Z,2.80
2023-03-06T13:01:41.981Z,2.70
2023-03-06T13:02:41.937Z,2.60
2023-03-06T13:03:41.880Z,2.80
2023-03-06T13:04:41.873Z,3.20
2023-03-06T13:05:41.856Z,3.20
2023-03-06T13:06:49.841Z,3.30
2023-03-06T13:07:42.877Z,3.10
2023-03-06T13:08:43.256Z,3.70
2023-03-06T13:09:41.813Z,3.40
2023-03-06T13:10:41.904Z,4.10
2023-03-06T13:11:41.828Z,3.40
2023-03-06T13:12:41.798Z,3.20
2023-03-06T13:13:41.753Z,4.30
2023-03-06T13:14:48.704Z,3.40
2023-03-06T13:15:42.754Z,3.80
2023-03-06T13:16:41.844Z,4.30
2023-03-06T13:17:41.724Z,4.80
2023-03-06T13:18:41.712Z,4.50
2023-03-06T13:19:41.694Z,4.20